SBPG/PNG METAR and TAF weather

Enter ICAO airport designator
Station Type Date Time Source
SBPG METAR 2024/06/15 20:00 UTC NOAA

SBPG 152000Z 33008KT CAVOK 26/14 Q1020


Station Type Date Time Source
SBPG Decoded METAR 2024/06/15 20:00 UTC NOAA

Paranagua, Brazil (SBPG) 25-31S 048-31W
Jun 15, 2024 - 04:00 PM EDT / 2024.06.15 2000 UTC
Wind: from the NNW (330 degrees) at 9 MPH (8 KT):0
Visibility: greater than 7 mile(s):0
Temperature: 78 F (26 C)
Dew Point: 57 F (14 C)
Relative Humidity: 47%
Pressure (altimeter): 30.12 in. Hg (1020 hPa)
ob: SBPG 152000Z 33008KT CAVOK 26/14 Q1020
cycle: 20

Station Type Date Time Source
SBPG TAF UTC NOAA

Error!

Example: see airport list